createdAt,value
2018-05-10T00:01:39.805Z,17.54
2018-05-10T00:04:05.561Z,17.52
2018-05-10T00:06:31.297Z,17.61
2018-05-10T00:08:57.040Z,17.59
2018-05-10T00:11:22.793Z,17.47
2018-05-10T00:13:48.519Z,17.53
2018-05-10T00:16:14.269Z,17.50
2018-05-10T00:18:40.008Z,17.42
2018-05-10T00:21:05.759Z,17.46
2018-05-10T00:23:31.496Z,17.52
2018-05-10T00:25:57.249Z,17.42
2018-05-10T00:28:22.997Z,17.42
2018-05-10T00:30:48.738Z,17.49
2018-05-10T00:33:14.468Z,17.36
2018-05-10T00:35:40.211Z,17.34
2018-05-10T00:38:05.936Z,17.30
2018-05-10T00:40:31.686Z,17.19
2018-05-10T00:42:57.408Z,17.11
2018-05-10T00:45:23.172Z,17.22
2018-05-10T00:47:48.900Z,17.27
2018-05-10T00:50:14.649Z,17.12
2018-05-10T00:52:40.415Z,17.06
2018-05-10T00:55:06.181Z,17.24
2018-05-10T00:57:31.929Z,17.13
2018-05-10T00:59:57.667Z,17.26
2018-05-10T01:02:23.417Z,17.19
2018-05-10T01:04:49.164Z,17.23
2018-05-10T01:07:14.912Z,17.20
2018-05-10T01:09:40.649Z,17.17
2018-05-10T01:12:06.404Z,17.21
2018-05-10T01:14:32.128Z,17.07
2018-05-10T01:16:57.880Z,17.07
2018-05-10T01:19:23.604Z,17.01
2018-05-10T01:21:49.368Z,17.06
2018-05-10T01:24:15.102Z,17.02
2018-05-10T01:26:40.852Z,16.95
2018-05-10T01:29:06.592Z,16.90
2018-05-10T01:31:32.344Z,16.84
2018-05-10T01:33:58.080Z,16.74
2018-05-10T01:36:23.816Z,16.83
2018-05-10T01:38:49.570Z,16.82
2018-05-10T01:41:15.300Z,16.80
2018-05-10T01:43:41.064Z,16.79
2018-05-10T01:46:06.821Z,16.76
2018-05-10T01:48:32.564Z,16.62
2018-05-10T01:50:58.295Z,16.49
2018-05-10T01:53:24.040Z,16.55
2018-05-10T01:55:49.781Z,16.56
2018-05-10T01:58:15.529Z,16.39
2018-05-10T02:00:41.259Z,16.40
2018-05-10T02:03:06.992Z,16.21
2018-05-10T02:05:32.722Z,16.26
2018-05-10T02:07:58.471Z,16.27
2018-05-10T02:10:24.206Z,16.11
2018-05-10T02:12:49.942Z,16.10
2018-05-10T02:15:15.709Z,16.09
2018-05-10T02:17:41.453Z,16.11
2018-05-10T02:20:07.184Z,16.08
2018-05-10T02:22:32.917Z,16.04
2018-05-10T02:24:58.691Z,16.11
2018-05-10T02:27:24.440Z,16.08
2018-05-10T02:29:50.206Z,16.08
2018-05-10T02:32:15.920Z,16.04
2018-05-10T02:34:41.666Z,15.96
2018-05-10T02:37:07.401Z,15.83
2018-05-10T02:39:33.149Z,15.88
2018-05-10T02:41:58.877Z,15.96
2018-05-10T02:44:24.611Z,15.99
2018-05-10T02:46:50.354Z,16.01
2018-05-10T02:49:16.089Z,15.85
2018-05-10T02:51:41.826Z,15.93
2018-05-10T02:54:07.564Z,15.85
2018-05-10T02:56:33.311Z,16.00
2018-05-10T02:58:59.064Z,16.06
2018-05-10T03:01:24.801Z,16.09
2018-05-10T03:03:50.533Z,16.06
2018-05-10T03:06:16.280Z,16.00
2018-05-10T03:08:42.024Z,16.00
2018-05-10T03:11:07.761Z,16.11
2018-05-10T03:13:33.498Z,16.18
2018-05-10T03:15:59.232Z,16.20
2018-05-10T03:18:24.976Z,16.14
2018-05-10T03:20:50.731Z,16.24
2018-05-10T03:23:16.449Z,16.12
2018-05-10T03:25:42.203Z,16.13
2018-05-10T03:28:07.920Z,16.17
2018-05-10T03:30:33.669Z,16.33
2018-05-10T03:32:59.396Z,16.24
2018-05-10T03:35:25.123Z,16.29
2018-05-10T03:37:50.864Z,16.14
2018-05-10T03:40:16.612Z,16.11
2018-05-10T03:42:42.352Z,16.13
2018-05-10T03:45:08.101Z,16.17
2018-05-10T03:47:33.834Z,16.17
2018-05-10T03:49:59.576Z,16.25
2018-05-10T03:52:25.299Z,16.12
2018-05-10T03:54:51.045Z,15.92
2018-05-10T03:57:16.772Z,15.80
2018-05-10T03:59:42.518Z,15.83
2018-05-10T04:02:08.244Z,15.88
2018-05-10T04:04:46.471Z,15.99
2018-05-10T04:07:25.460Z,15.99
2018-05-10T04:10:03.700Z,15.92
2018-05-10T04:12:29.440Z,15.89
2018-05-10T04:14:55.201Z,15.96
2018-05-10T04:17:20.928Z,15.92
2018-05-10T04:19:46.668Z,16.03
2018-05-10T04:22:12.400Z,16.01
2018-05-10T04:24:38.129Z,15.95
2018-05-10T04:27:03.871Z,15.95
2018-05-10T04:29:29.603Z,16.06
2018-05-10T04:31:55.346Z,16.22
2018-05-10T04:34:21.078Z,16.16
2018-05-10T04:36:46.831Z,16.14
2018-05-10T04:39:12.563Z,16.37
2018-05-10T04:41:38.312Z,16.48
2018-05-10T04:44:04.045Z,16.51
2018-05-10T04:46:29.798Z,16.82
2018-05-10T04:48:55.526Z,17.02
2018-05-10T04:51:21.265Z,16.98
2018-05-10T04:53:47.004Z,17.08
2018-05-10T04:56:12.748Z,17.00
2018-05-10T04:58:38.476Z,16.81
2018-05-10T05:01:04.212Z,16.78
2018-05-10T05:03:29.966Z,16.74
2018-05-10T05:05:55.672Z,16.87
2018-05-10T05:08:21.415Z,16.90
2018-05-10T05:10:47.156Z,16.84
2018-05-10T05:13:12.883Z,16.75
2018-05-10T05:15:38.608Z,16.81
2018-05-10T05:18:04.350Z,17.05
2018-05-10T05:20:30.092Z,17.11
2018-05-10T05:22:55.845Z,17.18
2018-05-10T05:25:21.573Z,17.32
2018-05-10T05:27:47.324Z,17.48
2018-05-10T05:30:13.049Z,17.57
2018-05-10T05:32:38.794Z,17.52
2018-05-10T05:35:04.523Z,17.59
2018-05-10T05:37:30.272Z,17.59
2018-05-10T05:39:56.004Z,17.65
2018-05-10T05:42:21.744Z,17.84
2018-05-10T05:44:47.471Z,18.00
2018-05-10T05:47:13.209Z,18.08
2018-05-10T05:49:38.939Z,18.18
2018-05-10T05:52:04.679Z,18.09
2018-05-10T05:54:30.404Z,18.23
2018-05-10T05:56:56.149Z,18.29
2018-05-10T05:59:21.938Z,18.43
2018-05-10T06:01:47.709Z,18.53
2018-05-10T06:04:13.433Z,18.83
2018-05-10T06:06:39.164Z,19.08
2018-05-10T06:09:04.917Z,19.24
2018-05-10T06:11:30.656Z,19.65
2018-05-10T06:13:56.396Z,19.90
2018-05-10T06:16:22.148Z,20.21
2018-05-10T06:18:47.889Z,20.41
2018-05-10T06:21:13.630Z,20.33
2018-05-10T06:23:39.368Z,20.16
2018-05-10T06:26:05.115Z,20.13
2018-05-10T06:28:30.879Z,20.17
2018-05-10T06:30:56.613Z,20.30
2018-05-10T06:33:22.361Z,20.44
2018-05-10T06:35:48.099Z,20.63
2018-05-10T06:38:13.854Z,20.89
2018-05-10T06:40:39.609Z,20.64
2018-05-10T06:43:05.343Z,20.64
2018-05-10T06:45:31.084Z,20.47
2018-05-10T06:47:56.830Z,20.39
2018-05-10T06:50:22.579Z,20.27
2018-05-10T06:52:48.329Z,20.19
2018-05-10T06:55:14.068Z,20.13
2018-05-10T06:57:39.816Z,20.18
2018-05-10T07:00:05.544Z,20.44
2018-05-10T07:02:31.288Z,20.61
2018-05-10T07:04:57.022Z,20.73
2018-05-10T07:07:22.769Z,20.55
2018-05-10T07:09:48.645Z,20.64
2018-05-10T07:12:14.257Z,20.53
2018-05-10T07:14:39.984Z,20.57
2018-05-10T07:17:05.739Z,20.61
2018-05-10T07:19:31.476Z,20.80
2018-05-10T07:21:57.213Z,21.17
2018-05-10T07:24:22.952Z,21.12
2018-05-10T07:26:48.692Z,21.17
2018-05-10T07:29:14.442Z,21.23
2018-05-10T07:31:40.176Z,21.17
2018-05-10T07:34:05.909Z,21.47
2018-05-10T07:36:31.665Z,21.50
2018-05-10T07:38:57.404Z,21.69
2018-05-10T07:41:23.164Z,21.62
2018-05-10T07:43:48.896Z,21.49
2018-05-10T07:46:14.624Z,21.58
2018-05-10T07:48:40.384Z,21.59
2018-05-10T07:51:06.148Z,21.56
2018-05-10T07:53:31.891Z,21.79
2018-05-10T07:55:57.646Z,21.90
2018-05-10T07:58:23.385Z,21.93
2018-05-10T08:00:49.105Z,22.32
2018-05-10T08:03:14.840Z,22.14
2018-05-10T08:05:40.573Z,22.08
2018-05-10T08:08:06.346Z,22.17
2018-05-10T08:10:32.079Z,22.86
2018-05-10T08:12:57.807Z,23.44
2018-05-10T08:15:23.548Z,23.49
2018-05-10T08:17:49.300Z,24.01
2018-05-10T08:20:15.057Z,24.03
2018-05-10T08:22:40.836Z,24.48
2018-05-10T08:25:06.590Z,24.66
2018-05-10T08:27:44.784Z,24.46
2018-05-10T08:30:10.566Z,24.86
2018-05-10T08:32:36.269Z,25.71
2018-05-10T08:35:02.020Z,25.82
2018-05-10T08:37:27.772Z,25.17
2018-05-10T08:39:53.541Z,25.15
2018-05-10T08:42:19.280Z,25.24
2018-05-10T08:44:45.019Z,25.45
2018-05-10T08:47:10.738Z,25.58
2018-05-10T08:49:36.472Z,25.31
2018-05-10T08:52:02.230Z,25.77
2018-05-10T08:54:27.963Z,26.27
2018-05-10T08:56:53.725Z,26.75
2018-05-10T08:59:19.457Z,26.66
2018-05-10T09:01:45.216Z,26.07
2018-05-10T09:04:10.977Z,26.08
2018-05-10T09:06:36.734Z,25.92
2018-05-10T09:09:02.509Z,26.02
2018-05-10T09:11:28.250Z,25.78
2018-05-10T09:13:53.998Z,25.96
2018-05-10T09:16:19.744Z,25.82
2018-05-10T09:18:45.484Z,25.67
2018-05-10T09:21:11.220Z,25.93
2018-05-10T09:23:36.951Z,26.15
2018-05-10T09:26:02.725Z,26.44
2018-05-10T09:28:28.426Z,26.26
2018-05-10T09:30:54.156Z,26.98
2018-05-10T09:33:19.896Z,26.81
2018-05-10T09:35:45.634Z,27.07
2018-05-10T09:38:11.365Z,27.49
2018-05-10T09:40:37.115Z,27.55
2018-05-10T09:43:02.866Z,27.15
2018-05-10T09:45:28.784Z,27.44
2018-05-10T09:47:54.544Z,27.61
2018-05-10T09:50:20.298Z,27.07
2018-05-10T09:52:46.063Z,26.83
2018-05-10T09:55:11.771Z,27.08
2018-05-10T09:57:37.500Z,27.66
2018-05-10T10:00:03.241Z,26.72
2018-05-10T10:02:28.968Z,26.54
2018-05-10T10:04:54.713Z,26.56
2018-05-10T10:07:20.441Z,26.64
2018-05-10T10:09:46.185Z,26.75
2018-05-10T10:12:11.916Z,26.59
2018-05-10T10:14:37.653Z,26.53
2018-05-10T10:17:03.389Z,26.72
2018-05-10T10:19:29.133Z,26.80
2018-05-10T10:21:54.871Z,27.01
2018-05-10T10:24:20.611Z,27.02
2018-05-10T10:26:46.340Z,26.79
2018-05-10T10:29:12.087Z,27.04
2018-05-10T10:31:37.825Z,26.75
2018-05-10T10:34:03.565Z,26.55
2018-05-10T10:36:29.284Z,26.67
2018-05-10T10:38:55.017Z,26.63
2018-05-10T10:41:20.760Z,26.44
2018-05-10T10:43:46.490Z,27.12
2018-05-10T10:46:12.219Z,26.79
2018-05-10T10:48:37.957Z,26.24
2018-05-10T10:51:03.700Z,25.89
2018-05-10T10:53:29.424Z,25.64
2018-05-10T10:55:55.153Z,25.86
2018-05-10T10:58:20.885Z,25.86
2018-05-10T11:00:46.643Z,25.97
2018-05-10T11:03:12.373Z,25.85
2018-05-10T11:05:38.104Z,25.81
2018-05-10T11:08:03.857Z,25.99
2018-05-10T11:10:29.596Z,25.99
2018-05-10T11:12:55.328Z,25.97
2018-05-10T11:15:21.067Z,26.24
2018-05-10T11:17:46.821Z,26.06
2018-05-10T11:20:12.561Z,26.09
2018-05-10T11:22:38.360Z,26.42
2018-05-10T11:25:04.094Z,26.60
2018-05-10T11:27:29.836Z,26.98
2018-05-10T11:29:55.588Z,27.26
2018-05-10T11:32:21.331Z,27.26
2018-05-10T11:34:47.073Z,27.65
2018-05-10T11:37:12.807Z,28.04
2018-05-10T11:39:38.545Z,28.18
2018-05-10T11:42:04.287Z,27.27
2018-05-10T11:44:30.087Z,27.49
2018-05-10T11:46:55.768Z,27.73
2018-05-10T11:49:21.500Z,27.77
2018-05-10T11:51:47.241Z,27.24
2018-05-10T11:54:12.980Z,27.84
2018-05-10T11:56:38.723Z,28.22
2018-05-10T11:59:04.448Z,28.37
2018-05-10T12:01:30.189Z,28.29
2018-05-10T12:03:55.940Z,28.19
2018-05-10T12:06:21.684Z,28.05
2018-05-10T12:08:47.675Z,27.96
2018-05-10T12:11:13.445Z,28.00
2018-05-10T12:13:39.430Z,28.14
2018-05-10T12:16:05.368Z,28.07
2018-05-10T12:18:31.097Z,27.99
2018-05-10T12:20:57.253Z,28.30
2018-05-10T12:23:23.371Z,28.10
2018-05-10T12:25:49.599Z,28.04
2018-05-10T12:28:15.837Z,28.28
2018-05-10T12:30:42.033Z,28.09
2018-05-10T12:33:08.156Z,28.52
2018-05-10T12:35:34.366Z,28.23
2018-05-10T12:38:00.478Z,28.07
2018-05-10T12:40:26.498Z,27.44
2018-05-10T12:42:52.373Z,27.04
2018-05-10T12:45:18.635Z,26.82
2018-05-10T12:47:44.758Z,26.65
2018-05-10T12:50:11.656Z,26.52
2018-05-10T12:52:37.764Z,25.94
2018-05-10T12:55:03.921Z,25.10
2018-05-10T12:57:30.018Z,24.44
2018-05-10T12:59:56.112Z,22.87
2018-05-10T13:02:22.244Z,22.84
2018-05-10T13:04:48.374Z,22.53
2018-05-10T13:07:14.580Z,22.65
2018-05-10T13:09:41.733Z,22.09
2018-05-10T13:12:08.738Z,21.83
2018-05-10T13:14:35.155Z,21.29
2018-05-10T13:17:01.307Z,20.41
2018-05-10T13:19:28.480Z,19.31
2018-05-10T13:21:54.444Z,18.74
2018-05-10T13:24:20.368Z,18.76
2018-05-10T13:26:47.385Z,17.81
2018-05-10T13:29:13.627Z,17.85
2018-05-10T13:31:39.767Z,17.68
2018-05-10T13:34:05.835Z,17.37
2018-05-10T13:36:32.012Z,17.23
2018-05-10T13:38:57.898Z,17.35
2018-05-10T13:41:23.896Z,17.25
2018-05-10T13:43:50.038Z,17.01
2018-05-10T13:46:15.971Z,16.80
2018-05-10T13:48:42.165Z,16.52
2018-05-10T13:51:08.379Z,16.72
2018-05-10T13:53:34.421Z,16.69
2018-05-10T13:56:02.284Z,16.69
2018-05-10T13:58:28.423Z,16.59
2018-05-10T14:00:54.625Z,16.64
2018-05-10T14:03:23.408Z,16.77
2018-05-10T14:05:49.570Z,16.73
2018-05-10T14:08:15.796Z,16.79
2018-05-10T14:10:41.968Z,17.00
2018-05-10T14:13:08.922Z,16.85
2018-05-10T14:15:35.097Z,16.70
2018-05-10T14:18:01.268Z,16.62
2018-05-10T14:20:27.542Z,16.68
2018-05-10T14:22:53.753Z,16.63
2018-05-10T14:25:20.013Z,16.87
2018-05-10T14:27:46.400Z,16.89
2018-05-10T14:30:12.613Z,17.02
2018-05-10T14:32:38.858Z,16.84
2018-05-10T14:35:04.955Z,16.83
2018-05-10T14:37:31.451Z,16.76
2018-05-10T14:39:57.554Z,16.72
2018-05-10T14:42:23.684Z,16.91
2018-05-10T14:44:50.931Z,16.73
2018-05-10T14:47:17.217Z,16.81
2018-05-10T14:49:44.173Z,16.49
2018-05-10T14:52:10.349Z,16.34
2018-05-10T14:54:36.447Z,16.07
2018-05-10T14:57:02.859Z,16.24
2018-05-10T14:59:29.414Z,16.26
2018-05-10T15:01:55.558Z,16.12
2018-05-10T15:04:21.678Z,15.89
2018-05-10T15:06:47.486Z,16.03
2018-05-10T15:09:15.589Z,15.84
2018-05-10T15:11:41.799Z,15.87
2018-05-10T15:14:07.628Z,15.82
2018-05-10T15:16:33.380Z,15.74
2018-05-10T15:18:59.141Z,15.86
2018-05-10T15:21:24.893Z,15.71
2018-05-10T15:23:50.647Z,15.78
2018-05-10T15:26:16.391Z,15.75
2018-05-10T15:28:42.146Z,15.65
2018-05-10T15:31:07.884Z,15.74
2018-05-10T15:33:33.633Z,15.76
2018-05-10T15:35:59.360Z,15.76
2018-05-10T15:38:25.110Z,15.70
2018-05-10T15:40:50.849Z,15.81
2018-05-10T15:43:16.581Z,15.73
2018-05-10T15:45:42.314Z,15.89
2018-05-10T15:48:08.049Z,15.87
2018-05-10T15:50:34.384Z,15.82
2018-05-10T15:53:01.449Z,15.73
2018-05-10T15:55:29.253Z,15.79
2018-05-10T15:57:56.997Z,15.77
2018-05-10T16:00:22.757Z,15.74
2018-05-10T16:02:48.508Z,15.89
2018-05-10T16:05:14.322Z,15.73
2018-05-10T16:07:40.084Z,15.74
2018-05-10T16:10:06.736Z,15.73
2018-05-10T16:12:34.116Z,15.87
2018-05-10T16:14:59.876Z,15.84
2018-05-10T16:17:26.251Z,15.83
2018-05-10T16:19:51.993Z,15.92
2018-05-10T16:22:17.736Z,15.92
2018-05-10T16:24:43.456Z,15.98
2018-05-10T16:27:09.213Z,16.03
2018-05-10T16:29:34.947Z,16.10
2018-05-10T16:32:00.684Z,16.12
2018-05-10T16:34:26.407Z,16.05
2018-05-10T16:36:52.156Z,16.09
2018-05-10T16:39:17.893Z,16.08
2018-05-10T16:41:43.623Z,15.92
2018-05-10T16:44:09.372Z,16.04
2018-05-10T16:46:35.108Z,16.11
2018-05-10T16:49:00.849Z,16.12
2018-05-10T16:51:26.574Z,16.12
2018-05-10T16:53:52.319Z,16.09
2018-05-10T16:56:18.048Z,16.21
2018-05-10T16:58:43.797Z,16.03
2018-05-10T17:01:09.538Z,16.10
2018-05-10T17:03:35.296Z,15.98
2018-05-10T17:06:01.016Z,15.94
2018-05-10T17:08:26.787Z,15.95
2018-05-10T17:10:53.392Z,16.01
2018-05-10T17:13:20.240Z,15.85
2018-05-10T17:15:47.067Z,15.91
2018-05-10T17:18:14.807Z,15.95
2018-05-10T17:20:41.260Z,15.93
2018-05-10T17:23:07.786Z,15.65
2018-05-10T17:25:33.565Z,15.58
2018-05-10T17:27:59.695Z,15.50
2018-05-10T17:30:25.455Z,15.35
2018-05-10T17:32:51.203Z,15.46
2018-05-10T17:35:16.935Z,15.36
2018-05-10T17:37:42.676Z,15.22
2018-05-10T17:40:08.402Z,15.34
2018-05-10T17:42:34.161Z,15.20
2018-05-10T17:45:00.705Z,14.92
2018-05-10T17:47:27.977Z,14.99
2018-05-10T17:49:53.775Z,14.94
2018-05-10T17:52:19.513Z,14.72
2018-05-10T17:54:45.239Z,14.60
2018-05-10T17:57:10.978Z,14.46
2018-05-10T17:59:36.720Z,14.57
2018-05-10T18:02:02.453Z,14.46
2018-05-10T18:04:28.208Z,14.52
2018-05-10T18:06:53.972Z,14.47
2018-05-10T18:09:19.716Z,14.51
2018-05-10T18:11:45.453Z,14.33
2018-05-10T18:14:11.225Z,14.58
2018-05-10T18:16:36.954Z,14.73
2018-05-10T18:19:02.689Z,14.43
2018-05-10T18:21:28.413Z,14.49
2018-05-10T18:23:54.164Z,14.48
2018-05-10T18:26:19.901Z,14.36
2018-05-10T18:28:45.644Z,14.25
2018-05-10T18:31:11.363Z,14.27
2018-05-10T18:33:37.100Z,14.20
2018-05-10T18:36:02.818Z,14.08
2018-05-10T18:38:28.566Z,13.99
2018-05-10T18:40:54.385Z,13.96
2018-05-10T18:43:20.029Z,13.86
2018-05-10T18:45:45.756Z,13.87
2018-05-10T18:48:11.493Z,13.80
2018-05-10T18:50:37.212Z,13.84
2018-05-10T18:53:02.933Z,13.81
2018-05-10T18:55:28.670Z,13.72
2018-05-10T18:57:54.388Z,13.79
2018-05-10T19:00:20.129Z,13.71
2018-05-10T19:02:45.847Z,13.73
2018-05-10T19:05:11.576Z,13.64
2018-05-10T19:07:37.298Z,13.57
2018-05-10T19:10:03.035Z,13.48
2018-05-10T19:12:28.757Z,13.58
2018-05-10T19:14:54.493Z,13.60
2018-05-10T19:17:20.213Z,13.58
2018-05-10T19:19:45.955Z,13.42
2018-05-10T19:22:11.680Z,13.36
2018-05-10T19:24:37.472Z,13.34
2018-05-10T19:27:03.149Z,13.26
2018-05-10T19:29:28.883Z,13.17
2018-05-10T19:31:54.665Z,13.30
2018-05-10T19:34:20.353Z,13.32
2018-05-10T19:36:46.079Z,13.13
2018-05-10T19:39:11.809Z,13.26
2018-05-10T19:41:37.529Z,13.28
2018-05-10T19:44:03.268Z,13.29
2018-05-10T19:46:29.017Z,13.26
2018-05-10T19:48:54.755Z,13.21
2018-05-10T19:51:20.496Z,13.16
2018-05-10T19:53:46.208Z,13.19
2018-05-10T19:56:11.928Z,13.11
2018-05-10T19:58:37.660Z,13.12
2018-05-10T20:01:03.395Z,13.07
2018-05-10T20:03:29.112Z,13.01
2018-05-10T20:05:54.843Z,13.07
2018-05-10T20:08:20.576Z,12.99
2018-05-10T20:10:46.315Z,12.96
2018-05-10T20:13:12.036Z,12.90
2018-05-10T20:15:37.776Z,12.86
2018-05-10T20:18:03.505Z,12.88
2018-05-10T20:20:29.231Z,12.85
2018-05-10T20:22:54.956Z,12.76
2018-05-10T20:25:20.687Z,12.71
2018-05-10T20:27:46.404Z,12.71
2018-05-10T20:30:12.133Z,12.74
2018-05-10T20:32:37.864Z,12.71
2018-05-10T20:35:04.730Z,12.66
2018-05-10T20:37:31.624Z,12.61
2018-05-10T20:39:57.409Z,12.71
2018-05-10T20:42:23.126Z,12.72
2018-05-10T20:44:48.982Z,12.69
2018-05-10T20:47:14.612Z,12.73
2018-05-10T20:49:40.349Z,12.68
2018-05-10T20:52:06.090Z,12.66
2018-05-10T20:54:31.819Z,12.64
2018-05-10T20:56:57.537Z,12.61
2018-05-10T20:59:23.274Z,12.62
2018-05-10T21:01:49.016Z,12.57
2018-05-10T21:04:14.827Z,12.58
2018-05-10T21:06:40.497Z,12.57
2018-05-10T21:09:06.236Z,12.50
2018-05-10T21:11:31.964Z,12.54
2018-05-10T21:13:57.686Z,12.49
2018-05-10T21:16:23.495Z,12.49
2018-05-10T21:18:49.156Z,12.48
2018-05-10T21:21:14.896Z,12.47
2018-05-10T21:23:40.612Z,12.47
2018-05-10T21:26:06.370Z,12.49
2018-05-10T21:28:32.072Z,12.50
2018-05-10T21:30:57.809Z,12.50
2018-05-10T21:33:23.532Z,12.49
2018-05-10T21:35:49.267Z,12.44
2018-05-10T21:38:14.992Z,12.46
2018-05-10T21:40:40.726Z,12.44
2018-05-10T21:43:06.444Z,12.46
2018-05-10T21:45:32.180Z,12.46
2018-05-10T21:47:57.893Z,12.52
2018-05-10T21:50:26.465Z,12.45
2018-05-10T21:52:52.195Z,12.51
2018-05-10T21:55:17.932Z,12.49
2018-05-10T21:57:43.656Z,12.50
2018-05-10T22:00:09.401Z,12.44
2018-05-10T22:02:35.121Z,12.45
2018-05-10T22:05:00.864Z,12.40
2018-05-10T22:07:26.611Z,12.40
2018-05-10T22:09:52.344Z,12.38
2018-05-10T22:12:18.079Z,12.41
2018-05-10T22:14:43.799Z,12.44
2018-05-10T22:17:09.540Z,12.37
2018-05-10T22:19:35.256Z,12.44
2018-05-10T22:22:01.036Z,12.38
2018-05-10T22:24:26.792Z,12.37
2018-05-10T22:26:52.532Z,12.29
2018-05-10T22:29:18.265Z,12.35
2018-05-10T22:31:44.004Z,12.31
2018-05-10T22:34:09.731Z,12.25
2018-05-10T22:36:35.470Z,12.27
2018-05-10T22:39:01.192Z,12.26
2018-05-10T22:41:27.018Z,12.24
2018-05-10T22:43:52.778Z,12.25
2018-05-10T22:46:18.518Z,12.19
2018-05-10T22:48:44.235Z,12.21
2018-05-10T22:51:09.975Z,12.17
2018-05-10T22:53:35.711Z,12.19
2018-05-10T22:56:01.552Z,12.18
2018-05-10T22:58:27.221Z,12.15
2018-05-10T23:00:52.957Z,12.15
2018-05-10T23:03:18.727Z,12.13
2018-05-10T23:05:44.693Z,12.16
2018-05-10T23:08:10.429Z,12.14
2018-05-10T23:10:36.174Z,12.15
2018-05-10T23:13:02.136Z,12.15
2018-05-10T23:15:27.864Z,12.19
2018-05-10T23:17:53.598Z,12.17
2018-05-10T23:20:19.324Z,12.16
2018-05-10T23:22:45.117Z,12.09
2018-05-10T23:25:10.836Z,12.08
2018-05-10T23:27:36.572Z,12.11
2018-05-10T23:30:02.289Z,12.05
2018-05-10T23:32:28.032Z,12.06
2018-05-10T23:34:53.788Z,12.05
2018-05-10T23:37:19.524Z,12.04
2018-05-10T23:39:45.242Z,12.02
2018-05-10T23:42:10.980Z,12.04
2018-05-10T23:44:36.698Z,12.04
2018-05-10T23:47:02.441Z,12.05
2018-05-10T23:49:28.159Z,12.01
2018-05-10T23:51:53.900Z,12.04
2018-05-10T23:54:19.617Z,11.99
2018-05-10T23:56:45.352Z,11.97
2018-05-10T23:59:11.069Z,11.94
